sensor_id;sensor_type;location;lat;lon;timestamp;P1;durP1;ratioP1;P2;durP2;ratioP2
10910;SDS011;5508;49.150;11.030;2023-05-10T00:02:26;9.27;;;7.23;;
10910;SDS011;5508;49.150;11.030;2023-05-10T00:05:26;8.07;;;7.30;;
10910;SDS011;5508;49.150;11.030;2023-05-10T00:08:27;9.83;;;6.83;;
10910;SDS011;5508;49.150;11.030;2023-05-10T00:11:28;11.93;;;7.77;;
10910;SDS011;5508;49.150;11.030;2023-05-10T00:14:28;13.47;;;8.13;;
10910;SDS011;5508;49.150;11.030;2023-05-10T00:17:29;12.90;;;8.07;;
10910;SDS011;5508;49.150;11.030;2023-05-10T00:20:30;9.77;;;8.87;;
10910;SDS011;5508;49.150;11.030;2023-05-10T00:23:31;9.60;;;8.70;;
10910;SDS011;5508;49.150;11.030;2023-05-10T00:26:31;11.03;;;9.90;;
10910;SDS011;5508;49.150;11.030;2023-05-10T00:29:32;10.30;;;8.73;;
10910;SDS011;5508;49.150;11.030;2023-05-10T00:32:33;11.47;;;9.67;;
10910;SDS011;5508;49.150;11.030;2023-05-10T00:35:34;11.77;;;9.03;;
10910;SDS011;5508;49.150;11.030;2023-05-10T00:38:34;10.43;;;9.40;;
10910;SDS011;5508;49.150;11.030;2023-05-10T00:41:35;10.80;;;8.83;;
10910;SDS011;5508;49.150;11.030;2023-05-10T00:44:36;10.47;;;9.20;;
10910;SDS011;5508;49.150;11.030;2023-05-10T00:47:36;16.93;;;10.30;;
10910;SDS011;5508;49.150;11.030;2023-05-10T00:50:37;10.40;;;9.27;;
10910;SDS011;5508;49.150;11.030;2023-05-10T00:53:40;11.90;;;10.70;;
10910;SDS011;5508;49.150;11.030;2023-05-10T00:56:41;14.30;;;10.70;;
10910;SDS011;5508;49.150;11.030;2023-05-10T00:59:42;10.40;;;9.43;;
10910;SDS011;5508;49.150;11.030;2023-05-10T01:02:42;9.90;;;8.93;;
10910;SDS011;5508;49.150;11.030;2023-05-10T01:05:46;10.43;;;8.60;;
10910;SDS011;5508;49.150;11.030;2023-05-10T01:08:47;9.10;;;8.20;;
10910;SDS011;5508;49.150;11.030;2023-05-10T01:11:47;11.23;;;8.70;;
10910;SDS011;5508;49.150;11.030;2023-05-10T01:14:49;8.47;;;7.03;;
10910;SDS011;5508;49.150;11.030;2023-05-10T01:17:49;9.73;;;7.90;;
10910;SDS011;5508;49.150;11.030;2023-05-10T01:20:54;10.03;;;8.07;;
10910;SDS011;5508;49.150;11.030;2023-05-10T01:31:15;8.60;;;6.93;;
10910;SDS011;5508;49.150;11.030;2023-05-10T01:34:39;7.77;;;7.00;;
10910;SDS011;5508;49.150;11.030;2023-05-10T01:37:52;10.43;;;6.80;;
10910;SDS011;5508;49.150;11.030;2023-05-10T01:47:53;7.30;;;6.60;;
10910;SDS011;5508;49.150;11.030;2023-05-10T01:51:00;7.50;;;6.87;;
10910;SDS011;5508;49.150;11.030;2023-05-10T01:54:01;7.07;;;6.37;;
10910;SDS011;5508;49.150;11.030;2023-05-10T01:57:03;8.97;;;6.90;;
10910;SDS011;5508;49.150;11.030;2023-05-10T02:00:08;9.37;;;6.97;;
10910;SDS011;5508;49.150;11.030;2023-05-10T02:03:11;7.40;;;6.70;;
10910;SDS011;5508;49.150;11.030;2023-05-10T02:06:13;8.63;;;6.30;;
10910;SDS011;5508;49.150;11.030;2023-05-10T02:09:16;7.90;;;6.93;;
10910;SDS011;5508;49.150;11.030;2023-05-10T02:12:18;9.40;;;7.80;;
10910;SDS011;5508;49.150;11.030;2023-05-10T02:15:21;7.87;;;7.07;;
10910;SDS011;5508;49.150;11.030;2023-05-10T02:18:23;7.70;;;6.93;;
10910;SDS011;5508;49.150;11.030;2023-05-10T02:21:26;7.80;;;6.70;;
10910;SDS011;5508;49.150;11.030;2023-05-10T02:24:28;8.87;;;7.90;;
10910;SDS011;5508;49.150;11.030;2023-05-10T02:27:30;8.80;;;7.90;;
10910;SDS011;5508;49.150;11.030;2023-05-10T02:30:32;9.10;;;8.17;;
10910;SDS011;5508;49.150;11.030;2023-05-10T02:33:34;9.80;;;7.87;;
10910;SDS011;5508;49.150;11.030;2023-05-10T02:36:36;8.20;;;7.40;;
10910;SDS011;5508;49.150;11.030;2023-05-10T02:39:39;8.57;;;7.27;;
10910;SDS011;5508;49.150;11.030;2023-05-10T02:42:43;9.07;;;8.17;;
10910;SDS011;5508;49.150;11.030;2023-05-10T02:45:46;8.73;;;7.93;;
10910;SDS011;5508;49.150;11.030;2023-05-10T02:48:48;9.40;;;8.50;;
10910;SDS011;5508;49.150;11.030;2023-05-10T02:51:50;8.47;;;7.53;;
10910;SDS011;5508;49.150;11.030;2023-05-10T02:54:55;9.50;;;8.50;;
10910;SDS011;5508;49.150;11.030;2023-05-10T02:58:01;8.17;;;7.37;;
10910;SDS011;5508;49.150;11.030;2023-05-10T03:01:02;6.73;;;5.80;;
10910;SDS011;5508;49.150;11.030;2023-05-10T03:04:03;5.40;;;4.87;;
10910;SDS011;5508;49.150;11.030;2023-05-10T03:07:04;5.17;;;4.67;;
10910;SDS011;5508;49.150;11.030;2023-05-10T03:10:05;3.40;;;3.00;;
10910;SDS011;5508;49.150;11.030;2023-05-10T03:16:29;2.10;;;1.90;;
10910;SDS011;5508;49.150;11.030;2023-05-10T03:22:37;7.27;;;2.50;;
10910;SDS011;5508;49.150;11.030;2023-05-10T03:25:44;2.37;;;2.00;;
10910;SDS011;5508;49.150;11.030;2023-05-10T03:28:48;3.30;;;1.97;;
10910;SDS011;5508;49.150;11.030;2023-05-10T03:31:50;3.13;;;1.93;;
10910;SDS011;5508;49.150;11.030;2023-05-10T03:34:51;2.27;;;1.87;;
10910;SDS011;5508;49.150;11.030;2023-05-10T03:37:52;2.03;;;1.70;;
10910;SDS011;5508;49.150;11.030;2023-05-10T03:40:52;2.67;;;1.73;;
10910;SDS011;5508;49.150;11.030;2023-05-10T03:43:53;1.30;;;1.20;;
10910;SDS011;5508;49.150;11.030;2023-05-10T03:46:53;1.30;;;1.20;;
10910;SDS011;5508;49.150;11.030;2023-05-10T03:49:54;1.40;;;1.23;;
10910;SDS011;5508;49.150;11.030;2023-05-10T03:52:54;1.63;;;1.47;;
10910;SDS011;5508;49.150;11.030;2023-05-10T03:55:55;2.60;;;1.20;;
10910;SDS011;5508;49.150;11.030;2023-05-10T03:58:56;1.20;;;1.10;;
10910;SDS011;5508;49.150;11.030;2023-05-10T04:01:56;0.90;;;0.90;;
10910;SDS011;5508;49.150;11.030;2023-05-10T04:04:57;1.87;;;0.90;;
10910;SDS011;5508;49.150;11.030;2023-05-10T04:07:57;0.87;;;0.87;;
10910;SDS011;5508;49.150;11.030;2023-05-10T04:11:07;0.97;;;0.93;;
10910;SDS011;5508;49.150;11.030;2023-05-10T04:14:09;0.97;;;0.87;;
10910;SDS011;5508;49.150;11.030;2023-05-10T04:17:10;0.90;;;0.90;;
10910;SDS011;5508;49.150;11.030;2023-05-10T04:20:10;2.40;;;0.80;;
10910;SDS011;5508;49.150;11.030;2023-05-10T04:23:11;0.87;;;0.87;;
10910;SDS011;5508;49.150;11.030;2023-05-10T04:26:14;0.90;;;0.80;;
10910;SDS011;5508;49.150;11.030;2023-05-10T04:29:14;1.80;;;0.80;;
10910;SDS011;5508;49.150;11.030;2023-05-10T04:32:15;0.60;;;0.60;;
10910;SDS011;5508;49.150;11.030;2023-05-10T04:35:17;0.77;;;0.70;;
10910;SDS011;5508;49.150;11.030;2023-05-10T04:38:17;1.60;;;0.67;;
10910;SDS011;5508;49.150;11.030;2023-05-10T04:41:18;1.10;;;0.70;;
10910;SDS011;5508;49.150;11.030;2023-05-10T04:44:18;0.60;;;0.60;;
10910;SDS011;5508;49.150;11.030;2023-05-10T04:47:19;1.77;;;0.70;;
10910;SDS011;5508;49.150;11.030;2023-05-10T04:50:20;1.50;;;1.40;;
10910;SDS011;5508;49.150;11.030;2023-05-10T04:53:20;2.00;;;0.70;;
10910;SDS011;5508;49.150;11.030;2023-05-10T04:56:21;0.93;;;0.83;;
10910;SDS011;5508;49.150;11.030;2023-05-10T04:59:22;1.47;;;0.63;;
10910;SDS011;5508;49.150;11.030;2023-05-10T05:02:23;0.70;;;0.70;;
10910;SDS011;5508;49.150;11.030;2023-05-10T05:05:23;0.67;;;0.67;;
10910;SDS011;5508;49.150;11.030;2023-05-10T05:08:24;2.43;;;0.80;;
10910;SDS011;5508;49.150;11.030;2023-05-10T05:11:25;0.73;;;0.73;;
10910;SDS011;5508;49.150;11.030;2023-05-10T05:14:25;5.50;;;1.10;;
10910;SDS011;5508;49.150;11.030;2023-05-10T05:17:26;1.20;;;1.10;;
10910;SDS011;5508;49.150;11.030;2023-05-10T05:20:27;1.23;;;1.10;;
10910;SDS011;5508;49.150;11.030;2023-05-10T05:23:27;4.20;;;0.93;;
10910;SDS011;5508;49.150;11.030;2023-05-10T05:26:28;1.00;;;1.00;;
10910;SDS011;5508;49.150;11.030;2023-05-10T05:29:28;1.37;;;1.20;;
10910;SDS011;5508;49.150;11.030;2023-05-10T05:32:29;1.20;;;1.10;;
10910;SDS011;5508;49.150;11.030;2023-05-10T05:35:30;1.77;;;1.27;;
10910;SDS011;5508;49.150;11.030;2023-05-10T05:38:30;2.87;;;1.20;;
10910;SDS011;5508;49.150;11.030;2023-05-10T05:41:31;1.47;;;1.37;;
10910;SDS011;5508;49.150;11.030;2023-05-10T05:44:32;1.40;;;1.30;;
10910;SDS011;5508;49.150;11.030;2023-05-10T05:47:32;1.70;;;1.60;;
10910;SDS011;5508;49.150;11.030;2023-05-10T05:50:33;3.87;;;2.20;;
10910;SDS011;5508;49.150;11.030;2023-05-10T05:53:33;1.77;;;1.60;;
10910;SDS011;5508;49.150;11.030;2023-05-10T05:56:34;1.57;;;1.47;;
10910;SDS011;5508;49.150;11.030;2023-05-10T05:59:35;1.93;;;1.73;;
10910;SDS011;5508;49.150;11.030;2023-05-10T06:02:35;5.33;;;2.03;;
10910;SDS011;5508;49.150;11.030;2023-05-10T06:05:36;2.20;;;2.00;;
10910;SDS011;5508;49.150;11.030;2023-05-10T06:08:37;1.90;;;1.80;;
10910;SDS011;5508;49.150;11.030;2023-05-10T06:11:37;2.63;;;1.90;;
10910;SDS011;5508;49.150;11.030;2023-05-10T06:14:38;3.07;;;1.50;;
10910;SDS011;5508;49.150;11.030;2023-05-10T06:17:38;3.80;;;1.67;;
10910;SDS011;5508;49.150;11.030;2023-05-10T06:20:40;3.63;;;1.90;;
10910;SDS011;5508;49.150;11.030;2023-05-10T06:23:42;1.83;;;1.73;;
10910;SDS011;5508;49.150;11.030;2023-05-10T06:26:42;1.40;;;1.30;;
10910;SDS011;5508;49.150;11.030;2023-05-10T06:29:43;3.23;;;1.57;;
10910;SDS011;5508;49.150;11.030;2023-05-10T06:32:43;1.37;;;1.27;;
10910;SDS011;5508;49.150;11.030;2023-05-10T06:35:45;1.63;;;1.40;;
10910;SDS011;5508;49.150;11.030;2023-05-10T06:38:45;3.80;;;1.50;;
10910;SDS011;5508;49.150;11.030;2023-05-10T06:41:46;2.37;;;1.70;;
10910;SDS011;5508;49.150;11.030;2023-05-10T06:44:46;1.50;;;1.40;;
10910;SDS011;5508;49.150;11.030;2023-05-10T06:47:47;1.97;;;1.30;;
10910;SDS011;5508;49.150;11.030;2023-05-10T06:50:48;1.90;;;1.37;;
10910;SDS011;5508;49.150;11.030;2023-05-10T06:53:48;3.03;;;1.30;;
10910;SDS011;5508;49.150;11.030;2023-05-10T06:56:49;2.77;;;1.30;;
10910;SDS011;5508;49.150;11.030;2023-05-10T06:59:49;1.37;;;1.27;;
10910;SDS011;5508;49.150;11.030;2023-05-10T07:02:51;2.70;;;1.27;;
10910;SDS011;5508;49.150;11.030;2023-05-10T07:05:52;1.80;;;1.40;;
10910;SDS011;5508;49.150;11.030;2023-05-10T07:08:52;6.73;;;1.80;;
10910;SDS011;5508;49.150;11.030;2023-05-10T07:11:53;1.50;;;1.40;;
10910;SDS011;5508;49.150;11.030;2023-05-10T07:14:53;2.13;;;1.40;;
10910;SDS011;5508;49.150;11.030;2023-05-10T07:17:54;1.60;;;1.50;;
10910;SDS011;5508;49.150;11.030;2023-05-10T07:20:56;1.53;;;1.40;;
10910;SDS011;5508;49.150;11.030;2023-05-10T07:23:57;1.70;;;1.60;;
10910;SDS011;5508;49.150;11.030;2023-05-10T07:26:57;1.50;;;1.30;;
10910;SDS011;5508;49.150;11.030;2023-05-10T07:29:58;1.77;;;1.67;;
10910;SDS011;5508;49.150;11.030;2023-05-10T07:32:59;1.83;;;1.73;;
10910;SDS011;5508;49.150;11.030;2023-05-10T07:35:59;1.80;;;1.70;;
10910;SDS011;5508;49.150;11.030;2023-05-10T07:39:00;2.13;;;1.63;;
10910;SDS011;5508;49.150;11.030;2023-05-10T07:42:01;1.63;;;1.53;;
10910;SDS011;5508;49.150;11.030;2023-05-10T07:45:02;2.60;;;1.73;;
10910;SDS011;5508;49.150;11.030;2023-05-10T07:48:03;1.90;;;1.70;;
10910;SDS011;5508;49.150;11.030;2023-05-10T07:51:04;3.60;;;1.80;;
10910;SDS011;5508;49.150;11.030;2023-05-10T07:54:07;3.50;;;1.70;;
10910;SDS011;5508;49.150;11.030;2023-05-10T07:57:07;1.70;;;1.60;;
10910;SDS011;5508;49.150;11.030;2023-05-10T08:00:08;2.33;;;1.70;;
10910;SDS011;5508;49.150;11.030;2023-05-10T08:03:12;1.63;;;1.43;;
10910;SDS011;5508;49.150;11.030;2023-05-10T08:06:12;1.60;;;1.40;;
10910;SDS011;5508;49.150;11.030;2023-05-10T08:09:14;1.20;;;1.03;;
10910;SDS011;5508;49.150;11.030;2023-05-10T08:12:15;1.97;;;1.43;;
10910;SDS011;5508;49.150;11.030;2023-05-10T08:15:16;2.47;;;1.50;;
10910;SDS011;5508;49.150;11.030;2023-05-10T08:18:16;3.37;;;1.50;;
10910;SDS011;5508;49.150;11.030;2023-05-10T08:21:17;2.80;;;1.40;;
10910;SDS011;5508;49.150;11.030;2023-05-10T08:24:18;3.03;;;1.50;;
10910;SDS011;5508;49.150;11.030;2023-05-10T08:27:19;1.50;;;1.40;;
10910;SDS011;5508;49.150;11.030;2023-05-10T08:30:19;7.40;;;1.40;;
10910;SDS011;5508;49.150;11.030;2023-05-10T08:33:20;2.43;;;1.40;;
10910;SDS011;5508;49.150;11.030;2023-05-10T08:36:21;1.77;;;1.40;;
10910;SDS011;5508;49.150;11.030;2023-05-10T08:39:24;2.77;;;1.40;;
10910;SDS011;5508;49.150;11.030;2023-05-10T08:42:24;3.03;;;1.60;;
10910;SDS011;5508;49.150;11.030;2023-05-10T08:45:28;1.53;;;1.43;;
10910;SDS011;5508;49.150;11.030;2023-05-10T08:48:33;3.00;;;1.67;;
10910;SDS011;5508;49.150;11.030;2023-05-10T08:51:36;1.40;;;1.20;;
10910;SDS011;5508;49.150;11.030;2023-05-10T08:54:38;2.77;;;1.20;;
10910;SDS011;5508;49.150;11.030;2023-05-10T08:57:39;2.20;;;1.27;;
10910;SDS011;5508;49.150;11.030;2023-05-10T09:00:39;2.27;;;1.30;;
10910;SDS011;5508;49.150;11.030;2023-05-10T09:03:40;2.83;;;1.27;;
10910;SDS011;5508;49.150;11.030;2023-05-10T09:06:41;1.53;;;1.20;;
10910;SDS011;5508;49.150;11.030;2023-05-10T09:09:42;2.40;;;1.30;;
10910;SDS011;5508;49.150;11.030;2023-05-10T09:12:44;1.37;;;1.13;;
10910;SDS011;5508;49.150;11.030;2023-05-10T09:15:45;2.30;;;1.53;;
10910;SDS011;5508;49.150;11.030;2023-05-10T09:18:47;1.53;;;1.20;;
10910;SDS011;5508;49.150;11.030;2023-05-10T09:21:47;3.63;;;1.30;;
10910;SDS011;5508;49.150;11.030;2023-05-10T09:25:02;1.37;;;0.97;;
10910;SDS011;5508;49.150;11.030;2023-05-10T09:28:08;2.73;;;1.40;;
10910;SDS011;5508;49.150;11.030;2023-05-10T09:31:09;2.07;;;1.30;;
10910;SDS011;5508;49.150;11.030;2023-05-10T09:34:10;3.10;;;1.30;;
10910;SDS011;5508;49.150;11.030;2023-05-10T09:37:11;2.07;;;1.10;;
10910;SDS011;5508;49.150;11.030;2023-05-10T09:40:12;3.50;;;1.90;;
10910;SDS011;5508;49.150;11.030;2023-05-10T09:43:15;4.60;;;1.87;;
10910;SDS011;5508;49.150;11.030;2023-05-10T09:46:15;2.17;;;1.27;;
10910;SDS011;5508;49.150;11.030;2023-05-10T09:49:16;2.13;;;1.40;;
10910;SDS011;5508;49.150;11.030;2023-05-10T09:52:17;2.90;;;1.50;;
10910;SDS011;5508;49.150;11.030;2023-05-10T09:55:18;2.53;;;1.37;;
10910;SDS011;5508;49.150;11.030;2023-05-10T09:58:21;3.20;;;1.73;;
10910;SDS011;5508;49.150;11.030;2023-05-10T10:01:25;4.40;;;1.27;;
10910;SDS011;5508;49.150;11.030;2023-05-10T10:04:26;2.27;;;1.70;;
10910;SDS011;5508;49.150;11.030;2023-05-10T10:07:27;1.93;;;1.40;;
10910;SDS011;5508;49.150;11.030;2023-05-10T10:10:28;2.43;;;1.47;;
10910;SDS011;5508;49.150;11.030;2023-05-10T10:13:29;2.13;;;1.70;;
10910;SDS011;5508;49.150;11.030;2023-05-10T10:16:30;3.67;;;2.03;;
10910;SDS011;5508;49.150;11.030;2023-05-10T10:19:32;2.90;;;1.93;;
10910;SDS011;5508;49.150;11.030;2023-05-10T10:22:34;2.00;;;1.80;;
10910;SDS011;5508;49.150;11.030;2023-05-10T10:25:34;1.90;;;1.67;;
10910;SDS011;5508;49.150;11.030;2023-05-10T10:28:39;3.77;;;2.13;;
10910;SDS011;5508;49.150;11.030;2023-05-10T10:35:12;5.73;;;1.87;;
10910;SDS011;5508;49.150;11.030;2023-05-10T10:38:13;2.47;;;1.60;;
10910;SDS011;5508;49.150;11.030;2023-05-10T10:41:33;4.33;;;1.90;;
10910;SDS011;5508;49.150;11.030;2023-05-10T10:44:35;2.03;;;1.40;;
10910;SDS011;5508;49.150;11.030;2023-05-10T10:47:38;1.97;;;1.00;;
10910;SDS011;5508;49.150;11.030;2023-05-10T10:50:44;2.90;;;1.20;;
10910;SDS011;5508;49.150;11.030;2023-05-10T10:53:48;1.63;;;1.20;;
10910;SDS011;5508;49.150;11.030;2023-05-10T10:57:10;4.00;;;1.30;;
10910;SDS011;5508;49.150;11.030;2023-05-10T11:03:26;1.70;;;1.30;;
10910;SDS011;5508;49.150;11.030;2023-05-10T11:06:29;1.43;;;1.17;;
10910;SDS011;5508;49.150;11.030;2023-05-10T11:09:31;1.93;;;1.20;;
10910;SDS011;5508;49.150;11.030;2023-05-10T11:12:50;2.90;;;1.50;;
10910;SDS011;5508;49.150;11.030;2023-05-10T11:15:53;1.60;;;1.20;;
10910;SDS011;5508;49.150;11.030;2023-05-10T11:18:56;2.07;;;1.30;;
10910;SDS011;5508;49.150;11.030;2023-05-10T11:25:05;4.30;;;1.30;;
10910;SDS011;5508;49.150;11.030;2023-05-10T11:28:07;1.77;;;1.50;;
10910;SDS011;5508;49.150;11.030;2023-05-10T11:31:09;3.23;;;1.57;;
10910;SDS011;5508;49.150;11.030;2023-05-10T11:34:10;1.27;;;1.00;;
10910;SDS011;5508;49.150;11.030;2023-05-10T11:37:11;1.10;;;1.03;;
10910;SDS011;5508;49.150;11.030;2023-05-10T11:40:11;1.40;;;1.00;;
10910;SDS011;5508;49.150;11.030;2023-05-10T11:43:12;1.70;;;1.10;;
10910;SDS011;5508;49.150;11.030;2023-05-10T11:46:13;3.37;;;1.10;;
10910;SDS011;5508;49.150;11.030;2023-05-10T11:49:13;1.30;;;1.20;;
10910;SDS011;5508;49.150;11.030;2023-05-10T11:52:14;1.47;;;1.33;;
10910;SDS011;5508;49.150;11.030;2023-05-10T11:55:15;2.30;;;1.40;;
10910;SDS011;5508;49.150;11.030;2023-05-10T11:58:15;1.47;;;1.37;;
10910;SDS011;5508;49.150;11.030;2023-05-10T12:01:18;1.40;;;1.30;;
10910;SDS011;5508;49.150;11.030;2023-05-10T12:04:19;1.83;;;1.40;;
10910;SDS011;5508;49.150;11.030;2023-05-10T12:07:20;1.90;;;1.70;;
10910;SDS011;5508;49.150;11.030;2023-05-10T12:10:25;2.37;;;1.80;;
10910;SDS011;5508;49.150;11.030;2023-05-10T12:13:26;3.20;;;1.60;;
10910;SDS011;5508;49.150;11.030;2023-05-10T12:16:28;1.93;;;1.83;;
10910;SDS011;5508;49.150;11.030;2023-05-10T12:19:36;2.40;;;2.00;;
10910;SDS011;5508;49.150;11.030;2023-05-10T12:22:38;2.33;;;2.13;;
10910;SDS011;5508;49.150;11.030;2023-05-10T12:25:38;2.07;;;1.90;;
10910;SDS011;5508;49.150;11.030;2023-05-10T12:28:39;2.97;;;1.97;;
10910;SDS011;5508;49.150;11.030;2023-05-10T12:35:10;9.20;;;6.67;;
10910;SDS011;5508;49.150;11.030;2023-05-10T12:38:29;2.50;;;2.30;;
10910;SDS011;5508;49.150;11.030;2023-05-10T12:41:34;2.47;;;1.90;;
10910;SDS011;5508;49.150;11.030;2023-05-10T12:44:34;3.50;;;2.20;;
10910;SDS011;5508;49.150;11.030;2023-05-10T12:47:35;2.03;;;1.83;;
10910;SDS011;5508;49.150;11.030;2023-05-10T12:50:36;3.37;;;1.57;;
10910;SDS011;5508;49.150;11.030;2023-05-10T12:53:37;2.07;;;1.37;;
10910;SDS011;5508;49.150;11.030;2023-05-10T12:56:38;2.70;;;1.30;;
10910;SDS011;5508;49.150;11.030;2023-05-10T12:59:40;1.53;;;1.43;;
10910;SDS011;5508;49.150;11.030;2023-05-10T13:02:41;3.10;;;1.40;;
10910;SDS011;5508;49.150;11.030;2023-05-10T13:05:42;1.50;;;1.40;;
10910;SDS011;5508;49.150;11.030;2023-05-10T13:08:42;2.13;;;1.53;;
10910;SDS011;5508;49.150;11.030;2023-05-10T13:11:43;2.67;;;1.40;;
10910;SDS011;5508;49.150;11.030;2023-05-10T13:14:43;1.67;;;1.10;;
10910;SDS011;5508;49.150;11.030;2023-05-10T13:17:44;3.03;;;1.60;;
10910;SDS011;5508;49.150;11.030;2023-05-10T13:20:45;4.63;;;4.23;;
10910;SDS011;5508;49.150;11.030;2023-05-10T13:23:45;2.60;;;1.70;;
10910;SDS011;5508;49.150;11.030;2023-05-10T13:26:46;1.83;;;1.30;;
10910;SDS011;5508;49.150;11.030;2023-05-10T13:29:47;2.00;;;1.40;;
10910;SDS011;5508;49.150;11.030;2023-05-10T13:32:47;2.30;;;1.30;;
10910;SDS011;5508;49.150;11.030;2023-05-10T13:35:48;1.93;;;1.20;;
10910;SDS011;5508;49.150;11.030;2023-05-10T13:38:49;1.70;;;1.10;;
10910;SDS011;5508;49.150;11.030;2023-05-10T13:41:49;2.37;;;1.37;;
10910;SDS011;5508;49.150;11.030;2023-05-10T13:44:50;2.37;;;1.20;;
10910;SDS011;5508;49.150;11.030;2023-05-10T13:47:51;1.50;;;1.23;;
10910;SDS011;5508;49.150;11.030;2023-05-10T13:50:51;1.40;;;0.97;;
10910;SDS011;5508;49.150;11.030;2023-05-10T13:53:52;4.77;;;1.50;;
10910;SDS011;5508;49.150;11.030;2023-05-10T13:56:53;1.93;;;1.00;;
10910;SDS011;5508;49.150;11.030;2023-05-10T13:59:53;1.93;;;1.63;;
10910;SDS011;5508;49.150;11.030;2023-05-10T14:02:54;1.27;;;0.97;;
10910;SDS011;5508;49.150;11.030;2023-05-10T14:05:54;1.30;;;1.20;;
10910;SDS011;5508;49.150;11.030;2023-05-10T14:08:55;1.70;;;1.07;;
10910;SDS011;5508;49.150;11.030;2023-05-10T14:11:56;0.93;;;0.93;;
10910;SDS011;5508;49.150;11.030;2023-05-10T14:14:57;2.23;;;1.37;;
10910;SDS011;5508;49.150;11.030;2023-05-10T14:17:58;1.90;;;1.40;;
10910;SDS011;5508;49.150;11.030;2023-05-10T14:20:58;2.07;;;1.40;;
10910;SDS011;5508;49.150;11.030;2023-05-10T14:23:59;1.03;;;1.03;;
10910;SDS011;5508;49.150;11.030;2023-05-10T14:27:00;1.37;;;1.27;;
10910;SDS011;5508;49.150;11.030;2023-05-10T14:30:00;2.43;;;1.50;;
10910;SDS011;5508;49.150;11.030;2023-05-10T14:33:01;1.83;;;1.40;;
10910;SDS011;5508;49.150;11.030;2023-05-10T14:36:02;1.57;;;1.17;;
10910;SDS011;5508;49.150;11.030;2023-05-10T14:39:03;2.33;;;1.20;;
10910;SDS011;5508;49.150;11.030;2023-05-10T14:42:04;1.90;;;1.40;;
10910;SDS011;5508;49.150;11.030;2023-05-10T14:45:05;1.50;;;1.23;;
10910;SDS011;5508;49.150;11.030;2023-05-10T14:48:06;5.73;;;1.60;;
10910;SDS011;5508;49.150;11.030;2023-05-10T14:51:11;2.43;;;1.30;;
10910;SDS011;5508;49.150;11.030;2023-05-10T14:54:11;5.07;;;1.73;;
10910;SDS011;5508;49.150;11.030;2023-05-10T14:57:12;2.57;;;1.73;;
10910;SDS011;5508;49.150;11.030;2023-05-10T15:00:13;2.20;;;1.53;;
10910;SDS011;5508;49.150;11.030;2023-05-10T15:03:15;1.87;;;1.63;;
10910;SDS011;5508;49.150;11.030;2023-05-10T15:06:16;2.97;;;2.43;;
10910;SDS011;5508;49.150;11.030;2023-05-10T15:09:17;2.73;;;2.50;;
10910;SDS011;5508;49.150;11.030;2023-05-10T15:12:18;7.23;;;4.63;;
10910;SDS011;5508;49.150;11.030;2023-05-10T15:15:18;3.00;;;2.17;;
10910;SDS011;5508;49.150;11.030;2023-05-10T15:18:19;1.70;;;1.53;;
10910;SDS011;5508;49.150;11.030;2023-05-10T15:21:20;2.37;;;1.53;;
10910;SDS011;5508;49.150;11.030;2023-05-10T15:24:21;2.53;;;2.20;;
10910;SDS011;5508;49.150;11.030;2023-05-10T15:27:22;2.80;;;1.50;;
10910;SDS011;5508;49.150;11.030;2023-05-10T15:30:22;3.37;;;1.70;;
10910;SDS011;5508;49.150;11.030;2023-05-10T15:33:23;4.90;;;1.73;;
10910;SDS011;5508;49.150;11.030;2023-05-10T15:36:24;3.13;;;2.83;;
10910;SDS011;5508;49.150;11.030;2023-05-10T15:39:25;2.77;;;1.80;;
10910;SDS011;5508;49.150;11.030;2023-05-10T15:42:25;4.90;;;1.70;;
10910;SDS011;5508;49.150;11.030;2023-05-10T15:45:26;2.50;;;2.30;;
10910;SDS011;5508;49.150;11.030;2023-05-10T15:48:26;5.33;;;3.37;;
10910;SDS011;5508;49.150;11.030;2023-05-10T15:51:27;5.60;;;5.00;;
10910;SDS011;5508;49.150;11.030;2023-05-10T15:54:27;4.70;;;4.17;;
10910;SDS011;5508;49.150;11.030;2023-05-10T15:57:28;5.00;;;2.70;;
10910;SDS011;5508;49.150;11.030;2023-05-10T16:00:29;5.60;;;3.50;;
10910;SDS011;5508;49.150;11.030;2023-05-10T16:03:30;6.47;;;3.20;;
10910;SDS011;5508;49.150;11.030;2023-05-10T16:06:31;2.77;;;2.47;;
10910;SDS011;5508;49.150;11.030;2023-05-10T16:09:31;2.50;;;1.90;;
10910;SDS011;5508;49.150;11.030;2023-05-10T16:12:32;3.30;;;2.40;;
10910;SDS011;5508;49.150;11.030;2023-05-10T16:15:33;5.20;;;3.03;;
10910;SDS011;5508;49.150;11.030;2023-05-10T16:18:34;8.83;;;2.23;;
10910;SDS011;5508;49.150;11.030;2023-05-10T16:21:34;7.10;;;5.57;;
10910;SDS011;5508;49.150;11.030;2023-05-10T16:24:35;3.60;;;2.60;;
10910;SDS011;5508;49.150;11.030;2023-05-10T16:27:36;12.53;;;6.03;;
10910;SDS011;5508;49.150;11.030;2023-05-10T16:30:37;28.60;;;17.00;;
10910;SDS011;5508;49.150;11.030;2023-05-10T16:33:37;50.90;;;30.03;;
10910;SDS011;5508;49.150;11.030;2023-05-10T16:36:38;5.33;;;3.70;;
10910;SDS011;5508;49.150;11.030;2023-05-10T16:39:39;2.90;;;1.40;;
10910;SDS011;5508;49.150;11.030;2023-05-10T16:42:39;4.90;;;3.67;;
10910;SDS011;5508;49.150;11.030;2023-05-10T16:45:40;12.33;;;9.63;;
10910;SDS011;5508;49.150;11.030;2023-05-10T16:48:41;7.20;;;5.20;;
10910;SDS011;5508;49.150;11.030;2023-05-10T16:51:41;4.63;;;2.80;;
10910;SDS011;5508;49.150;11.030;2023-05-10T16:54:42;6.70;;;6.10;;
10910;SDS011;5508;49.150;11.030;2023-05-10T16:57:43;1.93;;;1.47;;
10910;SDS011;5508;49.150;11.030;2023-05-10T17:00:43;1.83;;;1.50;;
10910;SDS011;5508;49.150;11.030;2023-05-10T17:03:44;2.80;;;2.50;;
10910;SDS011;5508;49.150;11.030;2023-05-10T17:06:44;3.20;;;2.00;;
10910;SDS011;5508;49.150;11.030;2023-05-10T17:09:45;2.97;;;2.20;;
10910;SDS011;5508;49.150;11.030;2023-05-10T17:12:46;7.97;;;3.00;;
10910;SDS011;5508;49.150;11.030;2023-05-10T17:15:46;4.27;;;2.40;;
10910;SDS011;5508;49.150;11.030;2023-05-10T17:18:47;5.83;;;3.23;;
10910;SDS011;5508;49.150;11.030;2023-05-10T17:21:48;9.90;;;6.27;;
10910;SDS011;5508;49.150;11.030;2023-05-10T17:24:48;3.60;;;2.80;;
10910;SDS011;5508;49.150;11.030;2023-05-10T17:27:49;4.13;;;3.63;;
10910;SDS011;5508;49.150;11.030;2023-05-10T17:30:54;5.13;;;4.67;;
10910;SDS011;5508;49.150;11.030;2023-05-10T17:33:56;8.90;;;5.10;;
10910;SDS011;5508;49.150;11.030;2023-05-10T17:36:56;6.87;;;5.57;;
10910;SDS011;5508;49.150;11.030;2023-05-10T17:39:58;11.73;;;10.50;;
10910;SDS011;5508;49.150;11.030;2023-05-10T17:42:59;16.20;;;14.57;;
10910;SDS011;5508;49.150;11.030;2023-05-10T17:46:00;12.73;;;10.60;;
10910;SDS011;5508;49.150;11.030;2023-05-10T17:49:00;3.33;;;2.87;;
10910;SDS011;5508;49.150;11.030;2023-05-10T17:52:01;4.60;;;2.47;;
10910;SDS011;5508;49.150;11.030;2023-05-10T17:55:02;6.33;;;5.43;;
10910;SDS011;5508;49.150;11.030;2023-05-10T17:58:03;13.30;;;9.63;;
10910;SDS011;5508;49.150;11.030;2023-05-10T18:01:03;4.10;;;3.70;;
10910;SDS011;5508;49.150;11.030;2023-05-10T18:04:04;4.93;;;4.27;;
10910;SDS011;5508;49.150;11.030;2023-05-10T18:07:05;4.63;;;3.03;;
10910;SDS011;5508;49.150;11.030;2023-05-10T18:10:06;3.00;;;2.67;;
10910;SDS011;5508;49.150;11.030;2023-05-10T18:13:07;3.23;;;2.57;;
10910;SDS011;5508;49.150;11.030;2023-05-10T18:16:08;4.40;;;2.13;;
10910;SDS011;5508;49.150;11.030;2023-05-10T18:19:11;3.90;;;3.00;;
10910;SDS011;5508;49.150;11.030;2023-05-10T18:22:12;2.90;;;2.60;;
10910;SDS011;5508;49.150;11.030;2023-05-10T18:25:12;4.57;;;2.80;;
10910;SDS011;5508;49.150;11.030;2023-05-10T18:28:13;4.13;;;3.13;;
10910;SDS011;5508;49.150;11.030;2023-05-10T18:31:13;2.83;;;2.37;;
10910;SDS011;5508;49.150;11.030;2023-05-10T18:34:15;9.13;;;2.77;;
10910;SDS011;5508;49.150;11.030;2023-05-10T18:37:15;4.37;;;3.00;;
10910;SDS011;5508;49.150;11.030;2023-05-10T18:40:16;5.70;;;2.90;;
10910;SDS011;5508;49.150;11.030;2023-05-10T18:43:18;6.77;;;3.47;;
10910;SDS011;5508;49.150;11.030;2023-05-10T18:46:19;6.17;;;3.10;;